Time;durP1;ratioP1;P1;durP2;ratioP2;P2;SDS_P1;SDS_P2;PMS_P1;PMS_P2;Temp;Humidity;BMP_temperature;BMP_pressure;BME280_temperature;BME280_humidity;BME280_pressure;Samples;Min_cycle;Max_cycle;Signal;HPM_P1;HPM_P2
2023/04/28 00:02:02;;;;;;;9.50;4.25;;;15.50;43.90;;;;;;4985939;28;20062;-48
2023/04/28 00:04:29;;;;;;;7.95;4.22;;;15.50;44.20;;;;;;4986413;28;20521;-44
2023/04/28 00:06:57;;;;;;;9.35;4.43;;;15.40;44.20;;;;;;4988267;28;20525;-46
2023/04/28 00:09:24;;;;;;;6.30;3.70;;;15.40;44.20;;;;;;4987765;28;20061;-46
2023/04/28 00:11:51;;;;;;;10.85;4.50;;;15.40;44.10;;;;;;4985377;28;20065;-44
2023/04/28 00:14:20;;;;;;;8.95;4.30;;;15.40;44.20;;;;;;4986210;28;20544;-44
2023/04/28 00:16:47;;;;;;;7.95;3.70;;;15.40;44.20;;;;;;4986204;28;20061;-45
2023/04/28 00:19:14;;;;;;;6.95;3.85;;;15.40;44.10;;;;;;4990852;28;20049;-44
2023/04/28 00:21:41;;;;;;;7.03;3.38;;;15.40;44.10;;;;;;4987269;28;20053;-46
2023/04/28 00:24:08;;;;;;;6.05;3.50;;;15.40;44.50;;;;;;4984949;28;20516;-44
2023/04/28 00:26:37;;;;;;;8.65;3.90;;;15.40;43.90;;;;;;4987254;28;20064;-45
2023/04/28 00:29:04;;;;;;;9.13;3.45;;;15.40;43.90;;;;;;4987393;28;20065;-48
2023/04/28 00:31:34;;;;;;;6.72;3.67;;;15.40;43.80;;;;;;4982919;28;20498;-46
2023/04/28 00:34:01;;;;;;;9.15;3.45;;;15.30;43.80;;;;;;4991560;28;20060;-46
2023/04/28 00:36:31;;;;;;;7.60;3.80;;;15.30;43.90;;;;;;4990018;28;20061;-46
2023/04/28 00:38:58;;;;;;;7.53;3.40;;;15.30;43.90;;;;;;4986061;28;20068;-49
2023/04/28 00:41:25;;;;;;;11.55;3.90;;;15.30;43.80;;;;;;4988103;28;20699;-46
2023/04/28 00:43:52;;;;;;;8.73;3.58;;;15.30;44.00;;;;;;4985891;28;20663;-49
2023/04/28 00:46:22;;;;;;;8.52;3.63;;;15.30;43.90;;;;;;4986805;28;20061;-46
2023/04/28 00:48:52;;;;;;;6.38;3.47;;;15.30;44.00;;;;;;4990067;28;20053;-43
2023/04/28 00:51:20;;;;;;;7.80;3.17;;;15.30;44.00;;;;;;4984254;28;20738;-45
2023/04/28 00:53:47;;;;;;;8.15;3.67;;;15.30;44.00;;;;;;4988257;28;20053;-44
2023/04/28 00:56:15;;;;;;;8.98;2.72;;;15.30;43.90;;;;;;4986873;28;20049;-47
2023/04/28 00:58:43;;;;;;;7.78;3.42;;;15.30;43.90;;;;;;4981252;28;20061;-45
2023/04/28 01:01:11;;;;;;;8.43;3.63;;;15.30;43.90;;;;;;5021360;23;20384;-46
2023/04/28 01:03:39;;;;;;;8.60;3.17;;;15.30;44.00;;;;;;5008073;28;20057;-48
2023/04/28 01:06:09;;;;;;;10.52;3.88;;;15.30;44.00;;;;;;5007327;28;20053;-51
2023/04/28 01:08:38;;;;;;;6.10;3.30;;;15.30;44.20;;;;;;5007987;28;20053;-49
2023/04/28 01:11:06;;;;;;;7.65;3.15;;;15.30;44.20;;;;;;5015640;28;20057;-47
2023/04/28 01:13:34;;;;;;;6.78;2.90;;;15.30;44.30;;;;;;5016913;28;20056;-50
2023/04/28 01:16:01;;;;;;;6.47;2.78;;;15.30;44.30;;;;;;5009955;28;20076;-48
2023/04/28 01:18:28;;;;;;;8.73;2.85;;;15.30;44.30;;;;;;5011302;28;20057;-48
2023/04/28 01:20:56;;;;;;;6.47;3.08;;;15.30;44.60;;;;;;5008916;28;20058;-48
2023/04/28 01:23:24;;;;;;;7.50;3.20;;;15.20;44.70;;;;;;5011312;28;20060;-48
2023/04/28 01:25:53;;;;;;;5.97;3.08;;;15.20;44.90;;;;;;5020385;28;20496;-53
2023/04/28 01:28:21;;;;;;;6.93;3.53;;;15.20;44.90;;;;;;5010748;28;20052;-47
2023/04/28 01:30:48;;;;;;;6.75;3.33;;;15.20;44.90;;;;;;5010332;28;22162;-46
2023/04/28 01:33:15;;;;;;;6.10;2.97;;;15.20;44.80;;;;;;5009575;28;20515;-47
2023/04/28 01:35:43;;;;;;;9.15;3.05;;;15.20;44.80;;;;;;5009532;28;20053;-51
2023/04/28 01:38:10;;;;;;;5.82;2.83;;;15.20;44.90;;;;;;5002788;28;20425;-48
2023/04/28 01:40:37;;;;;;;6.00;3.00;;;15.20;44.90;;;;;;5007336;28;20409;-50
2023/04/28 01:43:06;;;;;;;5.68;3.00;;;15.20;44.90;;;;;;5006962;28;20049;-50
2023/04/28 01:45:33;;;;;;;7.10;2.95;;;15.20;45.20;;;;;;5009905;28;20058;-47
2023/04/28 01:48:00;;;;;;;8.00;3.10;;;15.20;45.10;;;;;;5001117;28;20060;-48
2023/04/28 01:50:27;;;;;;;6.53;3.15;;;15.20;45.20;;;;;;5016731;28;20057;-49
2023/04/28 01:52:54;;;;;;;5.40;2.75;;;15.20;45.20;;;;;;5020882;28;20473;-50
2023/04/28 01:55:22;;;;;;;5.47;2.90;;;15.20;45.50;;;;;;5020019;28;20057;-49
2023/04/28 01:57:49;;;;;;;5.65;2.60;;;15.10;45.60;;;;;;5022028;28;20054;-48
2023/04/28 02:00:18;;;;;;;8.43;2.85;;;15.20;45.70;;;;;;5017536;28;20061;-48
2023/04/28 02:02:45;;;;;;;8.73;3.00;;;15.20;45.90;;;;;;4995907;28;20068;-50
2023/04/28 02:05:13;;;;;;;9.63;3.53;;;15.10;45.90;;;;;;5000064;28;20057;-49
2023/04/28 02:07:40;;;;;;;7.95;3.10;;;15.10;46.00;;;;;;5002722;28;20049;-48
2023/04/28 02:10:08;;;;;;;7.75;3.22;;;15.20;46.10;;;;;;5002044;28;20061;-48
2023/04/28 02:12:36;;;;;;;9.75;3.20;;;15.10;46.20;;;;;;5003217;28;20049;-50
2023/04/28 02:15:03;;;;;;;7.55;2.85;;;15.10;46.30;;;;;;4999149;28;20167;-48
2023/04/28 02:17:32;;;;;;;7.75;2.45;;;15.10;46.20;;;;;;5000709;28;20060;-49
2023/04/28 02:20:00;;;;;;;10.40;2.70;;;15.10;46.40;;;;;;5002734;28;20532;-48
2023/04/28 02:22:28;;;;;;;4.88;3.10;;;15.10;46.90;;;;;;5003778;28;20082;-48
2023/04/28 02:24:55;;;;;;;5.10;2.72;;;15.10;46.60;;;;;;5003997;28;20427;-49
2023/04/28 02:27:23;;;;;;;6.47;2.92;;;15.10;46.50;;;;;;5003166;28;20053;-49
2023/04/28 02:29:50;;;;;;;5.53;2.33;;;15.10;46.50;;;;;;4999886;28;20420;-51
2023/04/28 02:32:17;;;;;;;6.05;2.88;;;15.10;46.50;;;;;;5001233;28;20053;-48
2023/04/28 02:34:46;;;;;;;5.28;2.47;;;15.10;46.70;;;;;;5002119;28;20060;-48
2023/04/28 02:37:15;;;;;;;8.63;2.88;;;15.10;46.70;;;;;;5001648;28;20061;-50
2023/04/28 02:39:43;;;;;;;6.88;3.00;;;15.10;46.70;;;;;;5004293;28;20049;-47
2023/04/28 02:42:10;;;;;;;5.43;2.35;;;15.10;46.80;;;;;;4999748;28;20065;-49
2023/04/28 02:44:37;;;;;;;5.70;2.92;;;15.10;46.80;;;;;;5003063;28;20420;-50
2023/04/28 02:47:05;;;;;;;6.28;3.10;;;15.10;46.80;;;;;;5001725;28;20060;-48
2023/04/28 02:49:32;;;;;;;6.32;3.10;;;15.10;46.80;;;;;;5001874;28;20057;-49
2023/04/28 02:52:00;;;;;;;4.47;2.80;;;15.10;46.90;;;;;;5002198;28;20388;-52
2023/04/28 02:54:28;;;;;;;6.38;3.05;;;15.10;46.90;;;;;;5002315;28;20171;-49
2023/04/28 02:56:56;;;;;;;5.93;3.00;;;15.00;46.80;;;;;;5002565;28;20062;-48
2023/04/28 02:59:25;;;;;;;7.10;2.50;;;15.10;46.90;;;;;;5004871;28;20056;-47
2023/04/28 03:01:53;;;;;;;5.95;3.42;;;15.10;46.80;;;;;;4992038;28;20053;-49
2023/04/28 03:04:20;;;;;;;7.47;2.95;;;15.10;46.90;;;;;;4981875;28;22003;-50
2023/04/28 03:06:47;;;;;;;7.25;3.08;;;15.00;47.00;;;;;;4988463;28;20061;-49
2023/04/28 03:09:16;;;;;;;8.13;3.65;;;15.00;47.00;;;;;;4983930;28;20497;-48
2023/04/28 03:11:43;;;;;;;10.40;3.80;;;15.00;47.20;;;;;;4983896;28;20512;-46
2023/04/28 03:14:10;;;;;;;7.20;3.40;;;15.00;47.20;;;;;;4984658;28;20062;-47
2023/04/28 03:16:38;;;;;;;7.45;3.63;;;15.00;47.10;;;;;;4981672;28;20046;-50
2023/04/28 03:19:05;;;;;;;6.28;3.38;;;15.00;47.10;;;;;;4976897;28;20500;-47
2023/04/28 03:21:33;;;;;;;7.55;3.60;;;15.00;47.30;;;;;;4987998;28;20053;-45
2023/04/28 03:24:00;;;;;;;9.55;4.20;;;15.00;47.30;;;;;;4996015;28;20058;-47
2023/04/28 03:26:28;;;;;;;7.30;3.35;;;15.00;47.40;;;;;;5002107;28;20064;-46
2023/04/28 03:28:56;;;;;;;10.45;4.13;;;15.00;47.50;;;;;;5002539;28;20493;-48
2023/04/28 03:31:23;;;;;;;11.48;4.53;;;15.00;47.60;;;;;;5001183;28;20053;-46
2023/04/28 03:33:50;;;;;;;8.15;3.72;;;14.90;47.70;;;;;;4989689;28;20061;-48
2023/04/28 03:36:17;;;;;;;7.88;3.72;;;14.90;47.80;;;;;;4985415;28;20413;-48
2023/04/28 03:38:45;;;;;;;11.20;3.85;;;14.90;47.70;;;;;;4988112;28;20065;-46
2023/04/28 03:41:12;;;;;;;5.13;3.15;;;14.90;48.30;;;;;;4986144;28;20428;-51
2023/04/28 03:43:40;;;;;;;4.55;2.88;;;14.90;47.80;;;;;;4984719;28;20076;-49
2023/04/28 03:46:07;;;;;;;6.60;3.80;;;14.90;47.90;;;;;;4985480;28;20589;-48
2023/04/28 03:48:35;;;;;;;8.82;3.60;;;14.90;47.70;;;;;;4989828;28;20068;-47
2023/04/28 03:51:02;;;;;;;8.18;3.40;;;14.80;47.60;;;;;;4985846;28;20548;-47
2023/04/28 03:53:29;;;;;;;8.25;4.03;;;14.80;47.70;;;;;;4984122;28;20080;-48
2023/04/28 03:55:57;;;;;;;4.70;3.33;;;14.80;47.80;;;;;;4983488;28;20058;-47
2023/04/28 03:58:27;;;;;;;7.13;3.67;;;14.80;47.90;;;;;;4978392;28;20542;-46
2023/04/28 04:00:57;;;;;;;6.97;3.45;;;14.80;48.10;;;;;;4982600;28;20065;-47
2023/04/28 04:03:25;;;;;;;10.52;4.65;;;14.80;48.20;;;;;;4999094;28;20678;-50
2023/04/28 04:05:54;;;;;;;6.25;3.80;;;14.80;48.30;;;;;;4994048;28;20551;-46
2023/04/28 04:08:21;;;;;;;8.70;3.92;;;14.70;48.30;;;;;;4994051;28;20069;-49
2023/04/28 04:10:48;;;;;;;8.32;3.83;;;14.70;48.30;;;;;;4994971;28;20049;-48
2023/04/28 04:13:16;;;;;;;8.25;3.75;;;14.70;48.30;;;;;;4995850;28;20064;-50
2023/04/28 04:15:43;;;;;;;22.25;8.25;;;14.70;48.30;;;;;;4992336;28;20508;-46
2023/04/28 04:18:13;;;;;;;9.70;5.13;;;14.70;48.30;;;;;;4995046;28;20060;-46
2023/04/28 04:20:40;;;;;;;7.68;4.38;;;14.70;48.40;;;;;;4993909;28;20505;-48
2023/04/28 04:23:08;;;;;;;7.72;3.55;;;14.70;48.30;;;;;;4993234;28;20050;-47
2023/04/28 04:25:35;;;;;;;8.43;3.80;;;14.70;48.30;;;;;;4994463;28;20490;-49
2023/04/28 04:28:05;;;;;;;7.00;3.72;;;14.60;48.30;;;;;;4992850;28;20060;-50
2023/04/28 04:30:33;;;;;;;8.00;3.67;;;14.70;48.50;;;;;;4995619;28;20054;-46
2023/04/28 04:33:02;;;;;;;8.93;4.07;;;14.70;48.60;;;;;;4994121;28;20053;-47
2023/04/28 04:35:31;;;;;;;9.00;3.58;;;14.70;48.70;;;;;;4991593;28;20449;-50
2023/04/28 04:38:01;;;;;;;7.82;4.20;;;14.70;48.90;;;;;;4997565;28;20050;-46
2023/04/28 04:40:28;;;;;;;6.03;3.92;;;14.70;48.90;;;;;;4992153;28;20492;-48
2023/04/28 04:42:55;;;;;;;6.70;3.47;;;14.60;49.00;;;;;;4995686;28;20164;-48
2023/04/28 04:45:25;;;;;;;6.57;3.78;;;14.60;49.10;;;;;;4997077;28;20057;-47
2023/04/28 04:47:52;;;;;;;9.85;4.20;;;14.60;49.10;;;;;;4994163;28;20076;-47
2023/04/28 04:50:20;;;;;;;7.43;3.47;;;14.60;49.10;;;;;;4995069;28;20610;-51
2023/04/28 04:52:48;;;;;;;7.65;4.03;;;14.60;49.40;;;;;;4994745;28;20523;-49
2023/04/28 04:55:16;;;;;;;52.08;22.83;;;14.60;49.40;;;;;;4994584;28;20504;-49
2023/04/28 04:57:43;;;;;;;20.60;8.13;;;14.60;49.40;;;;;;4992081;28;20049;-47
2023/04/28 05:00:15;;;;;;;10.65;5.47;;;14.60;49.60;;;;;;4993371;28;20052;-48
2023/04/28 05:02:43;;;;;;;5.88;3.60;;;14.60;49.80;;;;;;4989577;28;20072;-47
2023/04/28 05:05:10;;;;;;;7.90;3.25;;;14.50;49.70;;;;;;4995489;28;20501;-45
2023/04/28 05:07:37;;;;;;;8.25;3.53;;;14.50;49.60;;;;;;4991620;28;20068;-46
2023/04/28 05:10:10;;;;;;;4.97;3.05;;;14.50;49.70;;;;;;4995302;28;20056;-49
2023/04/28 05:12:37;;;;;;;6.15;3.22;;;14.50;49.80;;;;;;4994518;28;20064;-49
2023/04/28 05:15:07;;;;;;;5.40;3.10;;;14.50;49.70;;;;;;4990064;28;21370;-50
2023/04/28 05:17:35;;;;;;;7.95;3.15;;;14.60;49.90;;;;;;4993083;28;20397;-47
2023/04/28 05:20:03;;;;;;;7.72;3.75;;;14.50;49.90;;;;;;5002360;28;20073;-50
2023/04/28 05:22:30;;;;;;;15.98;7.95;;;14.60;49.90;;;;;;4995823;28;20523;-45
2023/04/28 05:24:57;;;;;;;39.83;19.20;;;14.60;49.80;;;;;;4991562;28;20049;-50
2023/04/28 05:27:26;;;;;;;25.75;12.77;;;14.60;50.00;;;;;;4998042;28;20064;-49
2023/04/28 05:29:53;;;;;;;11.63;6.63;;;14.60;50.10;;;;;;4995225;28;20591;-49
2023/04/28 05:32:21;;;;;;;10.07;4.50;;;14.60;50.20;;;;;;4993091;28;20501;-52
2023/04/28 05:34:51;;;;;;;6.60;4.32;;;14.60;50.40;;;;;;4994700;28;20381;-48
2023/04/28 05:37:18;;;;;;;7.63;4.40;;;14.60;50.40;;;;;;4990975;28;20053;-49
2023/04/28 05:39:46;;;;;;;8.93;4.38;;;14.60;50.60;;;;;;4992937;28;21585;-48
2023/04/28 05:42:13;;;;;;;5.20;3.60;;;14.60;50.70;;;;;;4993867;28;20057;-45
2023/04/28 05:44:41;;;;;;;11.23;3.88;;;14.60;50.60;;;;;;4990857;28;20439;-47
2023/04/28 05:47:09;;;;;;;6.50;3.47;;;14.60;50.70;;;;;;4992369;28;20064;-50
2023/04/28 05:49:36;;;;;;;11.05;4.60;;;14.60;50.70;;;;;;4992796;28;20058;-46
2023/04/28 05:52:06;;;;;;;5.47;3.72;;;14.60;50.90;;;;;;4991758;28;20096;-52
2023/04/28 05:54:34;;;;;;;10.50;4.43;;;14.60;50.90;;;;;;4994536;28;20058;-50
2023/04/28 05:57:01;;;;;;;12.93;4.65;;;14.60;51.10;;;;;;4992717;28;22803;-51
2023/04/28 05:59:29;;;;;;;7.05;4.18;;;14.60;51.80;;;;;;4992628;28;20053;-48
2023/04/28 06:01:58;;;;;;;8.02;4.57;;;14.60;51.40;;;;;;4989599;28;21252;-48
2023/04/28 06:04:25;;;;;;;8.90;4.55;;;14.60;51.60;;;;;;4992277;28;20054;-48
2023/04/28 06:06:52;;;;;;;5.80;3.90;;;14.60;51.80;;;;;;4992034;28;20202;-49
2023/04/28 06:09:20;;;;;;;8.50;4.53;;;14.60;51.60;;;;;;4993668;28;20057;-48
2023/04/28 06:11:47;;;;;;;9.70;5.72;;;14.60;51.80;;;;;;4995247;28;20651;-49
2023/04/28 06:14:14;;;;;;;8.43;4.63;;;14.60;52.00;;;;;;4995794;28;20045;-51
2023/04/28 06:16:45;;;;;;;9.05;4.60;;;14.60;52.10;;;;;;4988617;28;20057;-46
2023/04/28 06:19:23;;;;;;;10.85;5.90;;;14.50;52.10;;;;;;4994914;28;20060;-43
2023/04/28 06:35:20;;;;;;;10.80;5.43;;;14.50;52.60;;;;;;5016789;28;20418;-47
2023/04/28 06:51:22;;;;;;;8.68;5.43;;;14.50;53.60;;;;;;4938887;29;20042;-45
2023/04/28 06:54:40;;;;;;;10.30;5.65;;;14.50;53.50;;;;;;4991618;28;20054;-44
2023/04/28 07:00:46;;;;;;;12.93;6.50;;;14.60;53.60;;;;;;4932239;29;20587;-46
2023/04/28 07:03:13;;;;;;;10.55;6.70;;;14.60;53.90;;;;;;4916507;28;20055;-49
2023/04/28 07:05:41;;;;;;;10.35;5.22;;;14.60;53.80;;;;;;4941573;28;20576;-47
2023/04/28 07:08:10;;;;;;;11.65;6.50;;;14.60;53.60;;;;;;4953332;28;20492;-48
2023/04/28 07:10:37;;;;;;;8.50;5.30;;;14.60;53.80;;;;;;4938408;28;20055;-46
2023/04/28 07:13:13;;;;;;;10.00;5.78;;;14.60;53.80;;;;;;4941800;28;21224;-46
2023/04/28 07:15:40;;;;;;;10.50;5.85;;;14.60;53.90;;;;;;4930243;28;20498;-44
2023/04/28 07:18:09;;;;;;;11.10;5.60;;;14.70;53.80;;;;;;4937238;28;20054;-45
2023/04/28 07:20:36;;;;;;;11.55;5.82;;;14.70;53.80;;;;;;4934982;28;20058;-48
2023/04/28 07:23:03;;;;;;;11.80;5.43;;;14.70;53.90;;;;;;4934496;28;20058;-46
2023/04/28 07:25:32;;;;;;;8.48;5.22;;;14.70;53.90;;;;;;4939728;28;20423;-51
2023/04/28 07:28:00;;;;;;;10.95;5.45;;;14.80;53.90;;;;;;4935208;28;20507;-48
2023/04/28 07:30:27;;;;;;;11.90;5.70;;;14.80;53.90;;;;;;4945307;28;20058;-47
2023/04/28 07:32:54;;;;;;;10.00;5.03;;;14.90;53.90;;;;;;4995226;28;20521;-46
2023/04/28 07:35:22;;;;;;;9.93;5.55;;;14.90;54.10;;;;;;4992665;28;20061;-47
2023/04/28 07:37:49;;;;;;;90.38;36.33;;;14.90;54.20;;;;;;4993519;28;20524;-49
2023/04/28 07:40:17;;;;;;;33.30;15.25;;;15.00;54.10;;;;;;4995988;28;20088;-52
2023/04/28 07:42:46;;;;;;;14.48;7.90;;;15.10;54.00;;;;;;4991322;28;20053;-48
2023/04/28 07:45:15;;;;;;;13.15;6.72;;;15.10;54.10;;;;;;4991233;28;20554;-49
2023/04/28 07:47:43;;;;;;;11.98;5.70;;;15.20;54.10;;;;;;4996493;28;21993;-47
2023/04/28 07:50:11;;;;;;;11.50;5.43;;;15.20;54.20;;;;;;4991337;28;20057;-44
2023/04/28 07:52:39;;;;;;;10.40;5.80;;;15.30;54.40;;;;;;4993711;28;20094;-49
2023/04/28 07:55:07;;;;;;;9.38;5.43;;;15.40;54.50;;;;;;4994444;28;20049;-45
2023/04/28 07:57:35;;;;;;;9.52;4.95;;;15.40;54.30;;;;;;4993436;28;20509;-48
2023/04/28 08:00:08;;;;;;;8.10;5.32;;;15.50;54.40;;;;;;4992522;28;20050;-49
2023/04/28 08:02:38;;;;;;;11.02;5.13;;;15.60;54.40;;;;;;5002668;28;20058;-46
2023/04/28 08:05:12;;;;;;;8.63;5.18;;;15.70;54.40;;;;;;5003809;28;20402;-46
2023/04/28 08:07:40;;;;;;;10.77;5.20;;;15.70;54.30;;;;;;5003736;28;20497;-51
2023/04/28 08:10:09;;;;;;;10.38;5.32;;;15.80;54.30;;;;;;5002220;28;20060;-45
2023/04/28 08:12:39;;;;;;;9.70;5.20;;;15.80;54.40;;;;;;5004304;28;20057;-48
2023/04/28 08:15:10;;;;;;;8.98;4.78;;;15.80;54.40;;;;;;5004285;28;20060;-47
2023/04/28 08:17:38;;;;;;;8.70;4.80;;;15.90;54.60;;;;;;5008939;28;20425;-46
2023/04/28 08:20:10;;;;;;;11.75;5.05;;;16.00;54.60;;;;;;5006604;28;20058;-45
2023/04/28 08:22:37;;;;;;;7.82;4.97;;;16.00;54.70;;;;;;5007091;28;20050;-49
2023/04/28 08:25:05;;;;;;;7.30;4.47;;;16.10;54.50;;;;;;5008646;28;20053;-49
2023/04/28 08:27:33;;;;;;;6.25;3.95;;;16.20;54.40;;;;;;5006116;28;20058;-49
2023/04/28 08:30:00;;;;;;;9.80;4.60;;;16.30;54.20;;;;;;5004882;28;20196;-49
2023/04/28 08:32:29;;;;;;;7.03;4.90;;;16.30;54.20;;;;;;5006328;28;20394;-48
2023/04/28 08:34:56;;;;;;;7.25;5.00;;;16.40;54.30;;;;;;5006280;28;20057;-53
2023/04/28 08:37:23;;;;;;;8.07;4.32;;;16.40;53.90;;;;;;5005518;28;20494;-48
2023/04/28 08:39:58;;;;;;;5.53;4.30;;;16.50;53.90;;;;;;5005305;28;20050;-49
2023/04/28 08:42:29;;;;;;;7.45;4.22;;;16.50;54.20;;;;;;5006000;28;20065;-51
2023/04/28 08:44:58;;;;;;;7.18;3.88;;;16.60;54.40;;;;;;5003808;28;20149;-53
2023/04/28 08:47:33;;;;;;;8.25;4.53;;;16.60;54.40;;;;;;5005775;28;20062;-48
2023/04/28 08:50:08;;;;;;;6.90;4.25;;;16.70;54.70;;;;;;5005894;28;20057;-47
2023/04/28 08:52:36;;;;;;;5.95;4.18;;;16.80;54.40;;;;;;5004993;28;20088;-48
2023/04/28 08:55:08;;;;;;;6.47;3.75;;;16.80;54.30;;;;;;5006797;28;20064;-49
2023/04/28 08:57:39;;;;;;;5.22;3.40;;;16.90;54.30;;;;;;5007602;28;20046;-49
2023/04/28 09:00:10;;;;;;;5.40;3.78;;;17.00;54.40;;;;;;5005416;28;20393;-47
2023/04/28 09:02:40;;;;;;;6.45;3.78;;;17.00;54.50;;;;;;5004228;28;20061;-45
2023/04/28 09:05:08;;;;;;;3.88;2.95;;;17.10;54.70;;;;;;5006101;28;20056;-45
2023/04/28 09:07:36;;;;;;;8.23;3.50;;;17.20;54.60;;;;;;5005955;28;20516;-47
2023/04/28 09:10:19;;;;;;;5.28;3.35;;;17.20;54.40;;;;;;5004986;28;20050;-50
2023/04/28 09:12:47;;;;;;;5.85;3.85;;;17.30;54.30;;;;;;5005378;28;20049;-47
2023/04/28 09:15:31;;;;;;;5.22;3.42;;;17.30;54.10;;;;;;5003752;28;20536;-46
2023/04/28 09:18:00;;;;;;;5.57;2.87;;;17.40;54.10;;;;;;5004911;28;20141;-46
2023/04/28 09:20:30;;;;;;;6.28;3.08;;;17.50;53.90;;;;;;5006006;28;20068;-46
2023/04/28 09:23:13;;;;;;;4.53;3.20;;;17.50;53.90;;;;;;5005320;28;20061;-47
2023/04/28 09:25:40;;;;;;;6.45;2.95;;;17.60;54.10;;;;;;5005373;28;20513;-48
2023/04/28 09:28:21;;;;;;;9.32;3.50;;;17.60;54.10;;;;;;5005597;28;20065;-45
2023/04/28 09:30:48;;;;;;;5.75;3.38;;;17.60;54.60;;;;;;5003555;28;20058;-46
2023/04/28 09:33:17;;;;;;;5.57;3.70;;;17.70;54.30;;;;;;5003505;28;20065;-50
2023/04/28 09:35:46;;;;;;;6.18;4.00;;;17.70;54.50;;;;;;5005490;28;20054;-47
2023/04/28 09:38:13;;;;;;;5.47;3.78;;;17.70;54.30;;;;;;5006104;28;20061;-47
2023/04/28 09:40:51;;;;;;;9.13;3.90;;;17.70;54.50;;;;;;5004599;28;20056;-47
2023/04/28 09:43:29;;;;;;;4.22;3.08;;;17.80;54.90;;;;;;5005130;28;20066;-48
2023/04/28 09:45:59;;;;;;;7.35;3.97;;;17.80;54.50;;;;;;5003495;28;20418;-49
2023/04/28 09:48:32;;;;;;;6.85;4.10;;;17.80;54.20;;;;;;5003876;28;20057;-48
2023/04/28 09:51:02;;;;;;;8.80;4.05;;;17.80;54.30;;;;;;5004262;28;20053;-46
2023/04/28 09:53:30;;;;;;;9.23;4.70;;;17.80;54.40;;;;;;5004853;28;20489;-47
2023/04/28 09:55:59;;;;;;;6.03;3.83;;;17.90;54.70;;;;;;5002705;28;20054;-49
2023/04/28 09:58:27;;;;;;;6.10;3.80;;;18.00;54.90;;;;;;5004056;28;21476;-50
2023/04/28 10:00:56;;;;;;;7.22;3.50;;;18.00;55.20;;;;;;5001162;28;20394;-47
2023/04/28 10:03:26;;;;;;;7.45;3.90;;;18.10;55.30;;;;;;5004480;28;20054;-46
2023/04/28 10:05:56;;;;;;;5.43;3.63;;;18.10;55.30;;;;;;5004684;28;20053;-48
2023/04/28 10:08:25;;;;;;;5.45;3.45;;;18.20;55.50;;;;;;5004504;28;20528;-50
2023/04/28 10:10:53;;;;;;;5.22;3.50;;;18.30;55.50;;;;;;5004907;28;20411;-50
2023/04/28 10:13:21;;;;;;;7.57;3.53;;;18.30;55.30;;;;;;5003822;28;20053;-49
2023/04/28 10:15:49;;;;;;;3.38;2.83;;;18.40;55.20;;;;;;5003791;28;20836;-47
2023/04/28 10:18:17;;;;;;;5.13;2.70;;;18.40;55.00;;;;;;5004859;28;20050;-48
2023/04/28 10:20:46;;;;;;;6.13;2.80;;;18.50;54.90;;;;;;5004664;28;20065;-48
2023/04/28 10:23:52;;;;;;;7.05;3.25;;;18.50;54.70;;;;;;5004508;28;20053;-49
2023/04/28 10:26:20;;;;;;;4.68;3.22;;;18.60;54.70;;;;;;5003966;28;20049;-48
2023/04/28 10:28:49;;;;;;;5.55;3.35;;;18.60;54.20;;;;;;5003658;28;20054;-51
2023/04/28 10:31:19;;;;;;;4.15;3.08;;;18.60;54.00;;;;;;5002051;28;20057;-47
2023/04/28 10:33:47;;;;;;;5.43;3.40;;;18.50;53.90;;;;;;4986359;28;20549;-47
2023/04/28 10:36:49;;;;;;;5.50;3.60;;;18.60;54.00;;;;;;5004087;28;20057;-46
2023/04/28 10:39:18;;;;;;;8.68;3.85;;;18.50;54.10;;;;;;5003667;28;20069;-48
2023/04/28 10:41:46;;;;;;;7.68;3.33;;;18.50;53.90;;;;;;5004219;28;20054;-49
2023/04/28 10:44:41;;;;;;;4.47;3.60;;;18.50;54.00;;;;;;5003002;28;20054;-45
2023/04/28 10:47:09;;;;;;;7.32;3.40;;;18.50;54.30;;;;;;5004935;28;20056;-45
2023/04/28 10:50:05;;;;;;;7.70;3.60;;;18.50;54.20;;;;;;5004123;28;20061;-49
2023/04/28 10:52:51;;;;;;;6.88;3.53;;;18.40;54.60;;;;;;5005332;28;20062;-43
2023/04/28 10:55:42;;;;;;;6.00;3.67;;;18.40;54.50;;;;;;5003865;28;20405;-43
2023/04/28 10:58:32;;;;;;;7.45;4.20;;;18.40;55.00;;;;;;4999626;28;20344;-45
2023/04/28 11:01:27;;;;;;;5.55;3.30;;;18.40;54.70;;;;;;4999846;28;20057;-44
2023/04/28 11:03:59;;;;;;;;;;;18.40;54.70;;;;;;5004814;28;20083;-44
2023/04/28 11:06:28;;;;;;;4.00;2.88;;;18.50;54.50;;;;;;5002913;28;19933;-47
2023/04/28 11:08:59;;;;;;;7.22;3.45;;;18.40;55.10;;;;;;5002655;28;20069;-44
2023/04/28 11:11:28;;;;;;;4.45;3.40;;;18.40;55.50;;;;;;5003186;28;20053;-49
2023/04/28 11:14:16;;;;;;;7.45;3.60;;;18.50;55.80;;;;;;5004252;28;20524;-43
2023/04/28 11:16:49;;;;;;;4.25;3.08;;;18.50;56.30;;;;;;5001854;28;20053;-43
2023/04/28 11:19:20;;;;;;;6.15;3.30;;;18.60;56.70;;;;;;5002752;28;20058;-44
2023/04/28 11:21:47;;;;;;;6.78;4.93;;;18.60;56.70;;;;;;5002753;28;20054;-44
2023/04/28 11:24:18;;;;;;;4.65;3.20;;;18.70;56.80;;;;;;5002604;28;20057;-49
2023/04/28 11:26:47;;;;;;;2.97;2.47;;;18.70;56.70;;;;;;5002358;28;20122;-45
2023/04/28 11:29:14;;;;;;;5.95;2.55;;;18.80;56.70;;;;;;5001872;28;20065;-45
2023/04/28 11:31:49;;;;;;;2.50;1.88;;;18.80;56.40;;;;;;5001188;28;20061;-44
2023/04/28 11:34:20;;;;;;;2.30;2.10;;;18.90;56.30;;;;;;5003119;28;20432;-46
2023/04/28 11:36:49;;;;;;;5.43;2.15;;;18.90;56.20;;;;;;5002764;28;20046;-44
2023/04/28 11:39:17;;;;;;;2.38;2.05;;;18.90;56.20;;;;;;5002003;28;20073;-44
2023/04/28 11:41:46;;;;;;;5.07;2.60;;;18.90;56.20;;;;;;5003425;28;20387;-47
2023/04/28 11:44:15;;;;;;;3.63;2.72;;;18.90;56.60;;;;;;5002663;28;20056;-46
2023/04/28 11:46:49;;;;;;;3.97;2.30;;;18.90;57.40;;;;;;5002115;28;20526;-45
2023/04/28 11:49:16;;;;;;;;;;;18.90;57.70;;;;;;5007597;28;20061;-44
2023/04/28 11:51:45;;;;;;;3.05;2.10;;;19.00;57.30;;;;;;5006992;28;19932;-46
2023/04/28 11:54:13;;;;;;;3.35;2.70;;;19.00;57.50;;;;;;5006883;28;20058;-48
2023/04/28 11:56:43;;;;;;;3.45;2.50;;;19.00;58.40;;;;;;5006016;28;20057;-48
2023/04/28 11:59:13;;;;;;;2.65;2.20;;;19.10;58.30;;;;;;5007634;28;20062;-49
2023/04/28 12:01:47;;;;;;;3.35;2.30;;;19.10;58.00;;;;;;5004788;28;20068;-46
2023/04/28 12:04:35;;;;;;;4.15;2.47;;;19.20;57.80;;;;;;5003509;28;20490;-49
2023/04/28 12:07:12;;;;;;;3.38;2.15;;;19.20;57.80;;;;;;4989565;28;20046;-46
2023/04/28 12:09:41;;;;;;;3.03;2.72;;;19.20;57.70;;;;;;5002352;28;20133;-48
2023/04/28 12:12:10;;;;;;;4.60;2.70;;;19.20;57.60;;;;;;5005437;28;20060;-46
2023/04/28 12:15:00;;;;;;;2.65;2.45;;;19.20;58.00;;;;;;5002810;28;20397;-48
2023/04/28 12:17:28;;;;;;;2.70;2.10;;;19.30;58.20;;;;;;5002986;28;20422;-49
2023/04/28 12:19:56;;;;;;;4.00;3.10;;;19.30;58.10;;;;;;5001285;28;20054;-47
2023/04/28 12:22:24;;;;;;;4.40;2.55;;;19.40;58.50;;;;;;5003942;28;20061;-45
2023/04/28 12:25:06;;;;;;;3.70;3.03;;;19.40;58.70;;;;;;5001284;28;20520;-47
2023/04/28 12:27:35;;;;;;;3.90;2.78;;;19.40;59.40;;;;;;5004333;28;20054;-47
2023/04/28 12:30:04;;;;;;;3.85;2.47;;;19.50;58.80;;;;;;4999929;28;20050;-46
2023/04/28 12:32:39;;;;;;;4.07;3.03;;;19.50;58.60;;;;;;5003157;28;20054;-48
2023/04/28 12:35:07;;;;;;;4.85;2.78;;;19.60;59.20;;;;;;5003916;28;20061;-45
2023/04/28 12:37:35;;;;;;;4.25;3.22;;;19.70;59.20;;;;;;5001871;28;20054;-48
2023/04/28 12:40:03;;;;;;;3.75;2.70;;;19.70;58.60;;;;;;5002868;28;20148;-45
2023/04/28 12:42:30;;;;;;;2.63;2.38;;;19.80;58.60;;;;;;5003714;28;20061;-47
2023/04/28 12:44:58;;;;;;;2.65;2.42;;;19.80;58.60;;;;;;5001763;28;20061;-47
2023/04/28 12:47:26;;;;;;;8.70;2.47;;;19.90;58.70;;;;;;5001954;28;20058;-46
2023/04/28 12:49:59;;;;;;;2.72;2.20;;;20.00;58.70;;;;;;5003470;28;20364;-46
2023/04/28 12:52:26;;;;;;;2.92;2.17;;;20.00;58.60;;;;;;5000847;28;21210;-51
2023/04/28 12:54:54;;;;;;;2.10;1.90;;;20.20;58.50;;;;;;5002232;28;20501;-48
2023/04/28 12:57:21;;;;;;;5.45;2.75;;;20.20;58.40;;;;;;5003189;28;20418;-47
2023/04/28 12:59:51;;;;;;;2.88;2.13;;;20.30;57.90;;;;;;5001959;28;20418;-48
2023/04/28 13:02:18;;;;;;;2.28;2.08;;;20.40;57.70;;;;;;5001537;28;20057;-46
2023/04/28 13:04:47;;;;;;;3.22;2.67;;;20.40;57.70;;;;;;4998282;28;21923;-46
2023/04/28 13:07:15;;;;;;;4.75;2.40;;;20.50;57.10;;;;;;4999053;28;20046;-45
2023/04/28 13:09:43;;;;;;;4.63;2.63;;;20.60;56.90;;;;;;5002977;28;20378;-52
2023/04/28 13:12:13;;;;;;;4.20;2.78;;;20.60;56.70;;;;;;5002216;28;20054;-50
2023/04/28 13:14:40;;;;;;;3.30;2.90;;;20.70;56.40;;;;;;5001730;28;20050;-47
2023/04/28 13:17:11;;;;;;;2.70;2.50;;;20.80;55.90;;;;;;5000390;28;20474;-47
2023/04/28 13:19:39;;;;;;;2.50;2.30;;;20.80;55.60;;;;;;5002883;28;21424;-49
2023/04/28 13:22:08;;;;;;;3.20;2.88;;;20.80;55.60;;;;;;4998858;28;20060;-51
2023/04/28 13:24:35;;;;;;;4.20;2.40;;;20.80;55.50;;;;;;4997878;28;20486;-46
2023/04/28 13:27:03;;;;;;;2.30;2.10;;;20.80;55.50;;;;;;4998297;28;20049;-47
2023/04/28 13:29:30;;;;;;;2.58;2.33;;;20.80;55.10;;;;;;4998808;28;20516;-51